Terminal Aerodrome Forecast
Issued by NWS Blacksburg, VA

Home | Current Version | Previous Version | Text Only | Print | Product List | Glossary On
Versions: 1 2 3 4 5 6 7 8 9 10 11 12 13 14 15 16 17 18 19 20
000
FTUS41 KRNK 221121
TAFBLF
TAF
KBLF 221121Z 2212/2312 VRB03KT P6SM SCT014
      TEMPO 2212/2213 4SM BR BKN014
     FM221600 26005KT P6SM VCTS SCT050CB BKN090
      TEMPO 2218/2220 5SM TSRA BR OVC030CB
     FM230100 25004KT P6SM VCSH OVC070
     FM230500 25004KT 4SM BR BKN050
      AMD NOT SKED=

USA.gov is the U.S. government's official web portal to all federal, state and local government web resources and services.